createdAt,value
2023-02-24T00:01:39.733Z,90.19
2023-02-24T00:03:53.164Z,90.26
2023-02-24T00:06:12.007Z,90.32
2023-02-24T00:08:24.783Z,90.30
2023-02-24T00:10:37.534Z,90.42
2023-02-24T00:12:50.125Z,90.44
2023-02-24T00:15:02.779Z,90.55
2023-02-24T00:17:15.410Z,90.69
2023-02-24T00:19:32.513Z,90.42
2023-02-24T00:21:46.140Z,90.58
2023-02-24T00:24:01.436Z,90.36
2023-02-24T00:26:15.823Z,90.54
2023-02-24T00:28:29.286Z,90.75
2023-02-24T00:30:44.149Z,90.90
2023-02-24T00:33:01.144Z,90.95
2023-02-24T00:35:14.193Z,90.97
2023-02-24T00:37:26.769Z,91.04
2023-02-24T00:39:41.395Z,90.89
2023-02-24T00:41:58.163Z,91.02
2023-02-24T00:44:13.451Z,91.06
2023-02-24T00:46:26.905Z,91.11
2023-02-24T00:48:40.863Z,90.99
2023-02-24T00:50:53.403Z,91.09
2023-02-24T00:53:06.736Z,91.28
2023-02-24T00:55:19.271Z,91.31
2023-02-24T00:57:33.344Z,91.42
2023-02-24T00:59:50.784Z,91.43
2023-02-24T01:02:04.413Z,91.51
2023-02-24T01:04:19.043Z,91.55
2023-02-24T01:06:34.050Z,91.82
2023-02-24T01:08:48.186Z,91.95
2023-02-24T01:11:19.636Z,92.01
2023-02-24T01:13:32.454Z,92.35
2023-02-24T01:15:45.028Z,92.68
2023-02-24T01:17:57.617Z,92.78
2023-02-24T01:20:18.183Z,93.23
2023-02-24T01:22:30.736Z,93.45
2023-02-24T01:24:44.815Z,93.88
2023-02-24T01:26:57.418Z,94.13
2023-02-24T01:29:10.109Z,94.80
2023-02-24T01:31:23.826Z,95.04
2023-02-24T01:33:39.662Z,95.56
2023-02-24T01:35:52.220Z,96.04
2023-02-24T01:38:05.271Z,96.60
2023-02-24T01:40:20.887Z,97.16
2023-02-24T01:42:33.680Z,97.24
2023-02-24T01:44:46.176Z,97.98
2023-02-24T01:47:03.451Z,98.47
2023-02-24T01:49:29.444Z,98.86
2023-02-24T01:51:58.946Z,99.04
2023-02-24T01:54:16.720Z,99.40
2023-02-24T01:56:31.249Z,99.87
2023-02-24T01:58:44.143Z,99.99
2023-02-24T02:00:57.843Z,100.00
2023-02-24T02:03:26.941Z,100.00
2023-02-24T02:05:41.339Z,100.00
2023-02-24T02:07:53.973Z,100.00
2023-02-24T02:10:08.560Z,100.00
2023-02-24T02:12:24.204Z,100.00
2023-02-24T02:14:39.800Z,100.00
2023-02-24T02:17:09.184Z,100.00
2023-02-24T02:19:39.901Z,100.00
2023-02-24T02:22:05.559Z,100.00
2023-02-24T02:24:27.080Z,100.00
2023-02-24T02:27:11.633Z,100.00
2023-02-24T02:29:42.043Z,100.00
2023-02-24T02:32:25.368Z,100.00
2023-02-24T02:35:03.641Z,100.00
2023-02-24T02:37:37.295Z,100.00
2023-02-24T02:40:22.613Z,100.00
2023-02-24T02:42:46.973Z,100.00
2023-02-24T02:45:08.747Z,100.00
2023-02-24T02:47:41.189Z,100.00
2023-02-24T02:50:28.022Z,100.00
2023-02-24T02:52:47.002Z,100.00
2023-02-24T02:55:14.912Z,100.00
2023-02-24T02:57:31.048Z,100.00
2023-02-24T02:59:52.785Z,100.00
2023-02-24T03:02:13.300Z,100.00
2023-02-24T03:04:26.605Z,100.00
2023-02-24T03:06:53.064Z,100.00
2023-02-24T03:09:15.966Z,100.00
2023-02-24T03:11:30.959Z,100.00
2023-02-24T03:13:49.547Z,100.00
2023-02-24T03:16:04.260Z,100.00
2023-02-24T03:18:29.000Z,100.00
2023-02-24T03:20:57.314Z,100.00
2023-02-24T03:23:19.705Z,100.00
2023-02-24T03:25:39.839Z,100.00
2023-02-24T03:28:01.066Z,100.00
2023-02-24T03:30:23.996Z,100.00
2023-02-24T03:32:49.768Z,100.00
2023-02-24T03:35:30.218Z,100.00
2023-02-24T03:37:43.635Z,100.00
2023-02-24T03:40:16.619Z,100.00
2023-02-24T03:42:32.730Z,100.00
2023-02-24T03:44:45.812Z,100.00
2023-02-24T03:46:58.494Z,100.00
2023-02-24T03:49:13.055Z,100.00
2023-02-24T03:51:26.510Z,100.00
2023-02-24T03:54:03.926Z,100.00
2023-02-24T03:56:29.531Z,100.00
2023-02-24T03:59:04.711Z,100.00
2023-02-24T04:01:55.486Z,100.00
2023-02-24T04:04:18.320Z,100.00
2023-02-24T04:06:52.419Z,100.00
2023-02-24T04:09:29.358Z,100.00
2023-02-24T04:11:47.248Z,100.00
2023-02-24T04:14:06.493Z,100.00
2023-02-24T04:16:36.446Z,100.00
2023-02-24T04:18:51.491Z,100.00
2023-02-24T04:21:05.473Z,100.00
2023-02-24T04:23:22.327Z,100.00
2023-02-24T04:25:35.738Z,100.00
2023-02-24T04:27:48.867Z,100.00
2023-02-24T04:30:04.839Z,100.00
2023-02-24T04:32:21.546Z,100.00
2023-02-24T04:34:35.121Z,100.00
2023-02-24T04:36:49.563Z,100.00
2023-02-24T04:39:02.258Z,100.00
2023-02-24T04:41:21.467Z,100.00
2023-02-24T04:43:35.764Z,100.00
2023-02-24T04:45:48.356Z,100.00
2023-02-24T04:48:02.884Z,100.00
2023-02-24T04:50:22.911Z,100.00
2023-02-24T04:52:35.682Z,100.00
2023-02-24T04:54:48.345Z,100.00
2023-02-24T04:57:01.131Z,100.00
2023-02-24T04:59:15.155Z,100.00
2023-02-24T05:01:28.697Z,100.00
2023-02-24T05:03:43.268Z,100.00
2023-02-24T05:05:59.912Z,100.00
2023-02-24T05:08:15.768Z,100.00
2023-02-24T05:10:30.900Z,100.00
2023-02-24T05:12:44.311Z,100.00
2023-02-24T05:15:01.214Z,100.00
2023-02-24T05:17:16.383Z,100.00
2023-02-24T05:19:47.430Z,100.00
2023-02-24T05:22:00.209Z,100.00
2023-02-24T05:24:17.123Z,100.00
2023-02-24T05:26:32.121Z,100.00
2023-02-24T05:28:49.095Z,100.00
2023-02-24T05:31:15.112Z,100.00
2023-02-24T05:33:29.209Z,100.00
2023-02-24T05:35:41.926Z,100.00
2023-02-24T05:37:55.078Z,100.00
2023-02-24T05:40:13.204Z,100.00
2023-02-24T05:42:27.816Z,100.00
2023-02-24T05:44:40.570Z,100.00
2023-02-24T05:46:58.798Z,100.00
2023-02-24T05:49:23.441Z,100.00
2023-02-24T05:51:39.128Z,100.00
2023-02-24T05:53:55.539Z,100.00
2023-02-24T05:56:09.477Z,100.00
2023-02-24T05:58:23.846Z,100.00
2023-02-24T06:00:39.142Z,100.00
2023-02-24T06:02:52.584Z,100.00
2023-02-24T06:05:08.789Z,100.00
2023-02-24T06:07:24.830Z,100.00
2023-02-24T06:09:40.234Z,100.00
2023-02-24T06:11:52.847Z,100.00
2023-02-24T06:14:08.341Z,100.00
2023-02-24T06:16:20.921Z,100.00
2023-02-24T06:18:33.983Z,100.00
2023-02-24T06:20:51.261Z,100.00
2023-02-24T06:23:05.390Z,100.00
2023-02-24T06:25:18.463Z,100.00
2023-02-24T06:27:33.115Z,100.00
2023-02-24T06:29:49.939Z,100.00
2023-02-24T06:32:08.820Z,100.00
2023-02-24T06:34:21.425Z,100.00
2023-02-24T06:36:33.972Z,100.00
2023-02-24T06:38:47.023Z,100.00
2023-02-24T06:41:04.147Z,100.00
2023-02-24T06:43:17.468Z,100.00
2023-02-24T06:45:30.933Z,100.00
2023-02-24T06:47:43.641Z,100.00
2023-02-24T06:49:56.247Z,100.00
2023-02-24T06:52:08.834Z,100.00
2023-02-24T06:54:28.368Z,100.00
2023-02-24T06:56:41.830Z,100.00
2023-02-24T06:58:56.253Z,100.00
2023-02-24T07:01:12.008Z,100.00
2023-02-24T07:03:39.470Z,100.00
2023-02-24T07:06:15.681Z,100.00
2023-02-24T07:08:28.262Z,100.00
2023-02-24T07:10:40.894Z,100.00
2023-02-24T07:12:54.752Z,100.00
2023-02-24T07:15:09.052Z,100.00
2023-02-24T07:17:23.392Z,100.00
2023-02-24T07:19:36.865Z,100.00
2023-02-24T07:21:52.589Z,100.00
2023-02-24T07:24:08.984Z,100.00
2023-02-24T07:26:24.058Z,100.00
2023-02-24T07:28:39.929Z,100.00
2023-02-24T07:30:52.616Z,100.00
2023-02-24T07:33:06.762Z,100.00
2023-02-24T07:35:19.400Z,100.00
2023-02-24T07:37:31.993Z,100.00
2023-02-24T07:39:44.605Z,100.00
2023-02-24T07:41:59.460Z,100.00
2023-02-24T07:44:13.581Z,100.00
2023-02-24T07:46:30.692Z,100.00
2023-02-24T07:48:43.389Z,100.00
2023-02-24T07:50:55.931Z,100.00
2023-02-24T07:53:09.964Z,100.00
2023-02-24T07:55:25.696Z,100.00
2023-02-24T07:57:38.829Z,100.00
2023-02-24T07:59:54.177Z,100.00
2023-02-24T08:02:11.383Z,100.00
2023-02-24T08:04:30.233Z,100.00
2023-02-24T08:06:47.838Z,100.00
2023-02-24T08:09:16.711Z,100.00
2023-02-24T08:11:35.657Z,100.00
2023-02-24T08:13:49.228Z,100.00
2023-02-24T08:16:05.344Z,100.00
2023-02-24T08:18:20.011Z,100.00
2023-02-24T08:20:51.207Z,100.00
2023-02-24T08:23:06.532Z,100.00
2023-02-24T08:25:35.361Z,100.00
2023-02-24T08:28:06.974Z,100.00
2023-02-24T08:30:25.057Z,100.00
2023-02-24T08:32:46.687Z,100.00
2023-02-24T08:35:03.583Z,100.00
2023-02-24T08:37:17.016Z,100.00
2023-02-24T08:39:30.262Z,100.00
2023-02-24T08:41:45.820Z,100.00
2023-02-24T08:43:58.607Z,100.00
2023-02-24T08:46:13.298Z,100.00
2023-02-24T08:48:37.560Z,100.00
2023-02-24T08:50:52.948Z,100.00
2023-02-24T08:53:05.602Z,100.00
2023-02-24T08:55:23.070Z,100.00
2023-02-24T08:57:35.948Z,100.00
2023-02-24T08:59:50.116Z,100.00
2023-02-24T09:02:18.735Z,100.00
2023-02-24T09:04:34.299Z,100.00
2023-02-24T09:06:48.530Z,100.00
2023-02-24T09:09:21.256Z,100.00
2023-02-24T09:11:34.006Z,100.00
2023-02-24T09:13:52.396Z,100.00
2023-02-24T09:16:05.413Z,100.00
2023-02-24T09:18:18.373Z,100.00
2023-02-24T09:20:56.295Z,100.00
2023-02-24T09:23:19.924Z,100.00
2023-02-24T09:25:41.019Z,100.00
2023-02-24T09:27:56.103Z,100.00
2023-02-24T09:30:32.690Z,100.00
2023-02-24T09:32:47.818Z,100.00
2023-02-24T09:35:00.473Z,100.00
2023-02-24T09:37:26.957Z,100.00
2023-02-24T09:39:54.584Z,100.00
2023-02-24T09:42:12.423Z,100.00
2023-02-24T09:44:40.229Z,100.00
2023-02-24T09:47:01.031Z,100.00
2023-02-24T09:49:18.102Z,100.00
2023-02-24T09:51:42.188Z,100.00
2023-02-24T09:53:56.995Z,100.00
2023-02-24T09:56:36.969Z,100.00
2023-02-24T09:59:11.490Z,100.00
2023-02-24T10:01:46.125Z,100.00
2023-02-24T10:04:20.046Z,100.00
2023-02-24T10:06:36.510Z,100.00
2023-02-24T10:09:11.690Z,100.00
2023-02-24T10:11:32.894Z,100.00
2023-02-24T10:13:50.710Z,100.00
2023-02-24T10:16:09.373Z,100.00
2023-02-24T10:18:27.630Z,100.00
2023-02-24T10:20:45.799Z,100.00
2023-02-24T10:23:05.409Z,100.00
2023-02-24T10:25:36.826Z,100.00
2023-02-24T10:28:01.600Z,100.00
2023-02-24T10:30:28.654Z,100.00
2023-02-24T10:32:52.969Z,100.00
2023-02-24T10:35:06.618Z,100.00
2023-02-24T10:37:28.562Z,100.00
2023-02-24T10:39:44.002Z,100.00
2023-02-24T10:41:58.871Z,100.00
2023-02-24T10:44:12.165Z,100.00
2023-02-24T10:46:41.489Z,100.00
2023-02-24T10:49:03.203Z,100.00
2023-02-24T10:51:30.386Z,100.00
2023-02-24T10:53:53.033Z,100.00
2023-02-24T10:56:41.473Z,100.00
2023-02-24T10:59:30.895Z,100.00
2023-02-24T11:01:54.836Z,100.00
2023-02-24T11:04:33.051Z,100.00
2023-02-24T11:06:57.689Z,99.33
2023-02-24T11:09:19.464Z,98.83
2023-02-24T11:11:54.757Z,97.54
2023-02-24T11:14:55.560Z,95.73
2023-02-24T11:17:20.976Z,95.05
2023-02-24T11:19:41.647Z,94.95
2023-02-24T11:21:56.228Z,94.80
2023-02-24T11:24:16.576Z,95.37
2023-02-24T11:26:36.772Z,95.79
2023-02-24T11:29:17.507Z,95.10
2023-02-24T11:31:32.938Z,95.73
2023-02-24T11:34:09.454Z,95.36
2023-02-24T11:36:46.852Z,95.52
2023-02-24T11:39:21.226Z,95.57
2023-02-24T11:41:40.955Z,94.98
2023-02-24T11:44:01.491Z,95.11
2023-02-24T11:46:20.969Z,94.96
2023-02-24T11:48:41.017Z,94.92
2023-02-24T11:51:18.798Z,94.76
2023-02-24T11:54:02.234Z,94.50
2023-02-24T11:56:31.955Z,94.19
2023-02-24T11:58:59.933Z,94.38
2023-02-24T12:01:16.823Z,94.32
2023-02-24T12:03:42.881Z,94.08
2023-02-24T12:06:01.493Z,94.00
2023-02-24T12:08:36.063Z,93.81
2023-02-24T12:10:56.496Z,93.70
2023-02-24T12:13:14.057Z,93.14
2023-02-24T12:15:30.955Z,92.76
2023-02-24T12:17:59.040Z,92.65
2023-02-24T12:20:34.303Z,91.47
2023-02-24T12:22:54.086Z,91.63
2023-02-24T12:25:11.951Z,91.74
2023-02-24T12:27:57.488Z,90.24
2023-02-24T12:30:33.893Z,90.31
2023-02-24T12:33:13.124Z,90.69
2023-02-24T12:35:54.479Z,90.34
2023-02-24T12:38:28.859Z,89.38
2023-02-24T12:40:45.241Z,89.60
2023-02-24T12:43:22.992Z,88.63
2023-02-24T12:45:49.813Z,87.57
2023-02-24T12:48:26.768Z,87.49
2023-02-24T12:51:01.174Z,86.74
2023-02-24T12:53:26.687Z,86.72
2023-02-24T12:55:55.439Z,85.80
2023-02-24T12:58:17.586Z,86.20
2023-02-24T13:00:46.515Z,86.34
2023-02-24T13:03:17.985Z,85.98
2023-02-24T13:05:43.401Z,85.44
2023-02-24T13:08:09.424Z,85.05
2023-02-24T13:10:24.688Z,84.84
2023-02-24T13:12:55.005Z,84.90
2023-02-24T13:15:19.563Z,84.41
2023-02-24T13:17:32.184Z,84.25
2023-02-24T13:19:46.012Z,83.76
2023-02-24T13:22:21.163Z,83.11
2023-02-24T13:24:34.183Z,83.74
2023-02-24T13:26:46.893Z,83.98
2023-02-24T13:29:10.438Z,83.62
2023-02-24T13:31:26.305Z,83.66
2023-02-24T13:33:44.122Z,83.85
2023-02-24T13:36:14.009Z,84.09
2023-02-24T13:38:37.366Z,84.06
2023-02-24T13:40:49.955Z,83.78
2023-02-24T13:43:04.786Z,83.36
2023-02-24T13:45:19.658Z,83.81
2023-02-24T13:47:41.482Z,84.10
2023-02-24T13:50:21.440Z,82.97
2023-02-24T13:52:52.605Z,81.83
2023-02-24T13:55:29.454Z,81.07
2023-02-24T13:57:54.918Z,80.74
2023-02-24T14:00:22.660Z,80.56
2023-02-24T14:02:42.886Z,81.12
2023-02-24T14:04:58.188Z,80.88
2023-02-24T14:07:17.841Z,80.49
2023-02-24T14:09:33.826Z,80.14
2023-02-24T14:11:50.350Z,80.12
2023-02-24T14:14:03.609Z,79.90
2023-02-24T14:16:21.423Z,80.10
2023-02-24T14:18:34.220Z,81.15
2023-02-24T14:20:46.941Z,81.88
2023-02-24T14:23:00.436Z,82.03
2023-02-24T14:25:13.801Z,81.76
2023-02-24T14:27:27.046Z,81.15
2023-02-24T14:29:44.100Z,80.83
2023-02-24T14:31:59.368Z,80.79
2023-02-24T14:34:17.993Z,81.33
2023-02-24T14:36:36.351Z,81.19
2023-02-24T14:39:08.743Z,81.12
2023-02-24T14:41:24.101Z,81.00
2023-02-24T14:43:42.902Z,80.63
2023-02-24T14:45:57.653Z,80.76
2023-02-24T14:48:23.087Z,80.87
2023-02-24T14:50:35.777Z,80.72
2023-02-24T14:52:53.513Z,80.35
2023-02-24T14:55:16.493Z,80.32
2023-02-24T14:57:34.944Z,80.61
2023-02-24T14:59:53.161Z,80.62
2023-02-24T15:02:15.109Z,80.78
2023-02-24T15:04:39.393Z,80.69
2023-02-24T15:06:52.228Z,80.70
2023-02-24T15:09:13.063Z,80.84
2023-02-24T15:11:29.392Z,80.85
2023-02-24T15:13:46.902Z,80.99
2023-02-24T15:16:10.437Z,81.13
2023-02-24T15:18:28.373Z,81.24
2023-02-24T15:20:41.301Z,81.28
2023-02-24T15:22:54.377Z,81.43
2023-02-24T15:25:16.121Z,81.37
2023-02-24T15:27:28.744Z,81.43
2023-02-24T15:29:56.242Z,81.69
2023-02-24T15:32:21.351Z,81.81
2023-02-24T15:34:36.407Z,81.93
2023-02-24T15:36:51.168Z,81.99
2023-02-24T15:39:10.573Z,81.93
2023-02-24T15:41:23.194Z,81.98
2023-02-24T15:43:47.836Z,82.15
2023-02-24T15:46:00.717Z,82.17
2023-02-24T15:48:20.841Z,82.18
2023-02-24T15:50:33.427Z,82.27
2023-02-24T15:52:45.995Z,82.02
2023-02-24T15:55:00.468Z,82.09
2023-02-24T15:57:16.513Z,82.27
2023-02-24T15:59:29.610Z,82.08
2023-02-24T16:01:42.253Z,82.47
2023-02-24T16:03:54.892Z,82.61
2023-02-24T16:06:16.630Z,82.75
2023-02-24T16:08:29.264Z,82.79
2023-02-24T16:10:41.948Z,82.92
2023-02-24T16:12:57.670Z,83.13
2023-02-24T16:15:18.996Z,83.14
2023-02-24T16:17:41.419Z,83.10
2023-02-24T16:19:56.756Z,83.20
2023-02-24T16:22:10.269Z,83.22
2023-02-24T16:24:22.821Z,83.52
2023-02-24T16:26:38.635Z,83.41
2023-02-24T16:28:57.063Z,83.53
2023-02-24T16:31:09.681Z,83.41
2023-02-24T16:33:23.689Z,83.34
2023-02-24T16:35:38.741Z,83.25
2023-02-24T16:37:51.844Z,83.41
2023-02-24T16:40:16.486Z,83.46
2023-02-24T16:42:28.987Z,83.53
2023-02-24T16:44:41.721Z,83.77
2023-02-24T16:46:54.260Z,83.61
2023-02-24T16:49:09.973Z,83.73
2023-02-24T16:51:22.512Z,83.48
2023-02-24T16:53:35.002Z,83.39
2023-02-24T16:55:47.705Z,83.68
2023-02-24T16:58:00.337Z,84.08
2023-02-24T17:00:15.147Z,84.48
2023-02-24T17:02:27.782Z,85.29
2023-02-24T17:04:40.364Z,85.66
2023-02-24T17:06:53.177Z,86.02
2023-02-24T17:09:05.762Z,86.76
2023-02-24T17:11:20.520Z,86.76
2023-02-24T17:13:33.129Z,87.46
2023-02-24T17:15:46.292Z,87.60
2023-02-24T17:17:58.800Z,87.93
2023-02-24T17:20:16.657Z,88.63
2023-02-24T17:22:29.179Z,88.88
2023-02-24T17:24:41.720Z,89.51
2023-02-24T17:26:58.657Z,89.89
2023-02-24T17:29:12.857Z,90.18
2023-02-24T17:31:28.353Z,90.66
2023-02-24T17:33:41.525Z,91.08
2023-02-24T17:35:54.117Z,91.38
2023-02-24T17:38:13.373Z,91.73
2023-02-24T17:40:26.001Z,92.07
2023-02-24T17:42:39.019Z,92.27
2023-02-24T17:44:51.548Z,92.57
2023-02-24T17:47:04.188Z,93.14
2023-02-24T17:49:16.726Z,93.29
2023-02-24T17:51:29.740Z,93.65
2023-02-24T17:53:42.356Z,94.10
2023-02-24T17:56:03.615Z,94.20
2023-02-24T17:58:16.151Z,94.14
2023-02-24T18:00:28.888Z,94.57
2023-02-24T18:02:41.748Z,94.68
2023-02-24T18:04:54.417Z,95.19
2023-02-24T18:07:08.269Z,95.25
2023-02-24T18:09:20.815Z,95.58
2023-02-24T18:11:33.367Z,95.71
2023-02-24T18:13:46.001Z,95.87
2023-02-24T18:15:58.938Z,96.31
2023-02-24T18:18:11.476Z,96.51
2023-02-24T18:20:24.021Z,96.37
2023-02-24T18:22:37.070Z,96.75
2023-02-24T18:24:49.893Z,97.03
2023-02-24T18:27:05.360Z,97.31
2023-02-24T18:29:18.058Z,97.52
2023-02-24T18:31:30.714Z,97.57
2023-02-24T18:33:43.828Z,97.54
2023-02-24T18:35:59.979Z,98.04
2023-02-24T18:38:12.595Z,98.04
2023-02-24T18:40:26.912Z,98.35
2023-02-24T18:42:39.628Z,98.27
2023-02-24T18:44:52.248Z,98.37
2023-02-24T18:47:09.330Z,98.41
2023-02-24T18:49:22.053Z,98.52
2023-02-24T18:51:35.687Z,98.73
2023-02-24T18:53:51.423Z,98.83
2023-02-24T18:56:16.796Z,99.00
2023-02-24T18:58:30.030Z,99.05
2023-02-24T19:00:45.063Z,99.23
2023-02-24T19:02:57.659Z,99.68
2023-02-24T19:05:10.451Z,99.50
2023-02-24T19:07:23.202Z,99.36
2023-02-24T19:09:35.744Z,99.42
2023-02-24T19:11:49.655Z,99.47
2023-02-24T19:14:02.257Z,98.87
2023-02-24T19:16:15.899Z,98.68
2023-02-24T19:18:28.567Z,98.35
2023-02-24T19:20:42.805Z,98.23
2023-02-24T19:22:55.446Z,97.81
2023-02-24T19:25:08.619Z,97.56
2023-02-24T19:27:21.241Z,96.82
2023-02-24T19:29:33.773Z,96.47
2023-02-24T19:31:46.656Z,96.00
2023-02-24T19:34:01.627Z,95.07
2023-02-24T19:36:14.367Z,94.87
2023-02-24T19:38:27.935Z,94.41
2023-02-24T19:40:41.242Z,93.76
2023-02-24T19:42:53.764Z,93.15
2023-02-24T19:45:07.518Z,92.57
2023-02-24T19:47:20.054Z,92.77
2023-02-24T19:49:33.465Z,92.47
2023-02-24T19:51:48.143Z,92.34
2023-02-24T19:54:08.493Z,91.99
2023-02-24T19:56:25.864Z,92.02
2023-02-24T19:58:38.944Z,91.99
2023-02-24T20:00:51.506Z,91.53
2023-02-24T20:03:04.093Z,91.34
2023-02-24T20:05:17.186Z,91.22
2023-02-24T20:07:29.947Z,91.38
2023-02-24T20:09:45.491Z,90.91
2023-02-24T20:11:58.987Z,91.26
2023-02-24T20:14:12.822Z,91.14
2023-02-24T20:16:26.819Z,91.36
2023-02-24T20:18:40.223Z,91.27
2023-02-24T20:20:57.022Z,91.39
2023-02-24T20:23:09.561Z,91.36
2023-02-24T20:25:22.138Z,91.37
2023-02-24T20:27:34.830Z,91.27
2023-02-24T20:29:47.420Z,91.31
2023-02-24T20:32:00.752Z,91.20
2023-02-24T20:34:14.420Z,91.29
2023-02-24T20:36:28.841Z,91.32
2023-02-24T20:38:41.410Z,91.56
2023-02-24T20:41:00.756Z,91.43
2023-02-24T20:43:13.433Z,91.36
2023-02-24T20:45:28.388Z,91.57
2023-02-24T20:47:40.903Z,91.60
2023-02-24T20:49:53.492Z,91.63
2023-02-24T20:52:06.060Z,91.76
2023-02-24T20:54:18.726Z,91.61
2023-02-24T20:56:35.671Z,91.60
2023-02-24T20:58:50.393Z,91.87
2023-02-24T21:01:02.949Z,91.82
2023-02-24T21:03:15.829Z,91.95
2023-02-24T21:05:28.428Z,91.81
2023-02-24T21:07:41.703Z,91.78
2023-02-24T21:09:54.338Z,92.00
2023-02-24T21:12:07.115Z,91.95
2023-02-24T21:14:20.208Z,91.75
2023-02-24T21:16:35.346Z,91.91
2023-02-24T21:18:50.467Z,91.93
2023-02-24T21:21:03.194Z,91.61
2023-02-24T21:23:15.737Z,91.84
2023-02-24T21:25:28.429Z,91.67
2023-02-24T21:27:41.053Z,91.57
2023-02-24T21:29:53.630Z,91.50
2023-02-24T21:32:06.261Z,91.24
2023-02-24T21:34:19.192Z,90.97
2023-02-24T21:36:31.705Z,90.96
2023-02-24T21:38:46.227Z,91.08
2023-02-24T21:41:02.062Z,91.26
2023-02-24T21:43:15.003Z,91.00
2023-02-24T21:45:28.066Z,91.02
2023-02-24T21:47:41.801Z,90.64
2023-02-24T21:49:55.012Z,90.68
2023-02-24T21:52:09.931Z,90.71
2023-02-24T21:54:23.158Z,90.65
2023-02-24T21:56:35.782Z,90.78
2023-02-24T21:58:57.864Z,90.92
2023-02-24T22:01:13.211Z,90.98
2023-02-24T22:03:26.025Z,91.13
2023-02-24T22:05:38.621Z,91.28
2023-02-24T22:07:51.852Z,91.24
2023-02-24T22:10:05.497Z,91.56
2023-02-24T22:12:18.038Z,91.63
2023-02-24T22:14:31.424Z,91.69
2023-02-24T22:16:44.573Z,91.79
2023-02-24T22:18:57.153Z,91.89
2023-02-24T22:21:17.092Z,92.23
2023-02-24T22:23:29.633Z,92.12
2023-02-24T22:25:42.175Z,92.64
2023-02-24T22:27:54.684Z,92.65
2023-02-24T22:30:08.244Z,92.85
2023-02-24T22:32:20.905Z,93.06
2023-02-24T22:34:33.661Z,93.13
2023-02-24T22:36:46.210Z,93.15
2023-02-24T22:38:59.874Z,93.07
2023-02-24T22:41:14.897Z,92.68
2023-02-24T22:43:28.894Z,92.64
2023-02-24T22:45:41.555Z,92.71
2023-02-24T22:47:54.214Z,93.01
2023-02-24T22:50:07.517Z,93.13
2023-02-24T22:52:20.301Z,93.00
2023-02-24T22:54:32.893Z,93.04
2023-02-24T22:56:45.818Z,92.80
2023-02-24T22:59:00.585Z,92.72
2023-02-24T23:01:17.858Z,92.91
2023-02-24T23:03:30.980Z,92.72
2023-02-24T23:05:57.959Z,92.56
2023-02-24T23:08:10.612Z,92.57
2023-02-24T23:10:23.162Z,92.60
2023-02-24T23:12:35.702Z,92.54
2023-02-24T23:14:48.263Z,92.54
2023-02-24T23:17:00.765Z,92.64
2023-02-24T23:19:17.431Z,92.72
2023-02-24T23:21:37.897Z,93.09
2023-02-24T23:23:56.929Z,93.59
2023-02-24T23:26:09.634Z,93.53
2023-02-24T23:28:22.160Z,94.16
2023-02-24T23:30:35.656Z,94.24
2023-02-24T23:32:48.563Z,94.53
2023-02-24T23:35:01.142Z,95.03
2023-02-24T23:37:14.376Z,95.38
2023-02-24T23:39:27.019Z,95.47
2023-02-24T23:41:41.469Z,95.87
2023-02-24T23:43:54.015Z,96.14
2023-02-24T23:46:09.368Z,96.27
2023-02-24T23:48:21.907Z,96.84
2023-02-24T23:50:37.582Z,97.10
2023-02-24T23:52:50.199Z,97.17
2023-02-24T23:55:03.578Z,97.49
2023-02-24T23:57:17.569Z,97.82
2023-02-24T23:59:30.168Z,98.33
